Time;durP1;ratioP1;P1;durP2;ratioP2;P2;SDS_P1;SDS_P2;PMS_P1;PMS_P2;Temp;Humidity;BMP_temperature;BMP_pressure;BME280_temperature;BME280_humidity;BME280_pressure;Samples;Min_cycle;Max_cycle;Signal;HPM_P1;HPM_P2
2022/01/22 00:00:11;;;;;;;;;;;-2.60;81.70;;;;;;5061302;28;19924;-77
2022/01/22 00:02:38;;;;;;;;;;;-2.70;81.30;;;;;;5040028;28;19924;-77
2022/01/22 00:05:06;;;;;;;;;;;-2.70;80.10;;;;;;5050309;28;19921;-75
2022/01/22 00:07:33;;;;;;;;;;;-2.70;80.30;;;;;;5031107;28;19921;-81
2022/01/22 00:10:05;;;;;;;;;;;-2.70;80.30;;;;;;5050351;28;19921;-76
2022/01/22 00:15:09;;;;;;;;;;;-2.70;80.60;;;;;;5037131;28;19921;-76
2022/01/22 00:17:36;;;;;;;;;;;-2.80;81.30;;;;;;5034021;28;19947;-81
2022/01/22 00:20:06;;;;;;;;;;;-2.80;80.10;;;;;;5028841;28;19943;-77
2022/01/22 00:22:35;;;;;;;;;;;-2.80;80.10;;;;;;5040516;28;19924;-75
2022/01/22 00:25:03;;;;;;;;;;;-2.80;80.30;;;;;;5050460;28;19974;-77
2022/01/22 00:27:30;;;;;;;;;;;-2.80;80.60;;;;;;5067654;28;19927;-76
2022/01/22 00:29:56;;;;;;;;;;;-2.90;82.80;;;;;;5036431;28;19970;-81
2022/01/22 00:32:23;;;;;;;;;;;-2.90;84.40;;;;;;5054279;28;19924;-77
2022/01/22 00:34:50;;;;;;;;;;;-2.80;84.70;;;;;;5034248;28;19924;-76
2022/01/22 00:37:17;;;;;;;;;;;-2.80;83.40;;;;;;5053109;28;19924;-77
2022/01/22 00:39:44;;;;;;;;;;;-2.80;84.20;;;;;;5036711;28;20421;-76
2022/01/22 00:42:13;;;;;;;;;;;-2.80;84.30;;;;;;5035063;28;19967;-77
2022/01/22 00:44:40;;;;;;;;;;;-2.90;85.70;;;;;;5017681;28;19921;-81
2022/01/22 00:47:07;;;;;;;;;;;-2.90;85.60;;;;;;5017878;28;19928;-76
2022/01/22 00:49:34;;;;;;;;;;;-2.90;84.40;;;;;;5051954;28;19921;-81
2022/01/22 00:52:01;;;;;;;;;;;-3.00;84.00;;;;;;5052305;28;19994;-76
2022/01/22 00:54:28;;;;;;;;;;;-3.00;86.00;;;;;;5036168;28;19924;-76
2022/01/22 00:56:54;;;;;;;;;;;-3.00;85.50;;;;;;5068175;28;19924;-81
2022/01/22 00:59:21;;;;;;;;;;;-3.00;85.40;;;;;;5048728;28;20568;-77
2022/01/22 01:01:48;;;;;;;;;;;-2.90;86.90;;;;;;5071257;28;19921;-75
2022/01/22 01:04:15;;;;;;;;;;;-2.90;86.50;;;;;;5061852;28;19927;-76
2022/01/22 01:06:42;;;;;;;;;;;-2.90;85.70;;;;;;5066373;28;19924;-80
2022/01/22 01:09:10;;;;;;;;;;;-2.80;85.30;;;;;;5045738;28;19921;-75
2022/01/22 01:11:46;;;;;;;;;;;-2.80;85.10;;;;;;5041680;28;19921;-76
2022/01/22 01:14:19;;;;;;;;;;;-2.80;86.30;;;;;;5041673;28;19932;-77
2022/01/22 01:17:08;;;;;;;;;;;-2.80;85.50;;;;;;5067483;28;19986;-75
2022/01/22 01:33:37;;;;;;;;;;;-2.90;85.10;;;;;;5073981;28;19978;-81
2022/01/22 01:36:05;;;;;;;;;;;-2.90;84.50;;;;;;5052681;28;19929;-75
2022/01/22 01:38:38;;;;;;;;;;;-2.90;84.20;;;;;;5044335;28;19987;-77
2022/01/22 01:41:15;;;;;;;;;;;-3.00;83.90;;;;;;5070471;28;19932;-76
2022/01/22 01:43:42;;;;;;;;;;;-3.00;83.50;;;;;;5052090;28;20061;-81
2022/01/22 01:46:09;;;;;;;;;;;-3.00;82.80;;;;;;5066553;28;20385;-77
2022/01/22 01:48:39;;;;;;;;;;;-3.00;84.10;;;;;;5065073;28;19932;-77
2022/01/22 01:51:07;;;;;;;;;;;-3.00;84.40;;;;;;5047037;28;21315;-81
2022/01/22 01:58:30;;;;;;;;;;;-3.00;84.20;;;;;;5072145;28;20453;-81
2022/01/22 02:01:00;;;;;;;;;;;-3.00;83.50;;;;;;5045050;28;19928;-81
2022/01/22 02:03:27;;;;;;;;;;;-3.00;83.80;;;;;;5061177;28;19924;-75
2022/01/22 02:05:54;;;;;;;;;;;-3.10;83.30;;;;;;5061333;28;19935;-77
2022/01/22 02:08:21;;;;;;;;;;;-3.10;83.70;;;;;;5069286;28;19929;-81
2022/01/22 02:10:57;;;;;;;;;;;-3.40;85.00;;;;;;5043142;28;20355;-76
2022/01/22 02:13:38;;;;;;;;;;;-3.50;84.80;;;;;;5050950;28;19932;-76
2022/01/22 02:24:44;;;;;;;;;;;-3.50;83.40;;;;;;5063868;28;19928;-81
2022/01/22 02:27:11;;;;;;;;;;;-3.60;83.70;;;;;;5052052;28;19959;-77
2022/01/22 02:29:38;;;;;;;;;;;-3.60;84.30;;;;;;5046351;28;19925;-79
2022/01/22 02:35:28;;;;;;;;;;;-3.60;83.40;;;;;;5017405;28;19924;-76
2022/01/22 02:38:06;;;;;;;;;;;-3.70;84.10;;;;;;5060903;28;19981;-75
2022/01/22 02:40:41;;;;;;;;;;;-3.70;85.70;;;;;;5033600;28;19928;-77
2022/01/22 02:43:10;;;;;;;;;;;-3.70;86.80;;;;;;5051050;28;19946;-76
2022/01/22 02:45:38;;;;;;;;;;;-3.70;87.50;;;;;;5056199;28;20034;-78
2022/01/22 02:48:05;;;;;;;;;;;-3.60;89.50;;;;;;5062162;28;20400;-77
2022/01/22 02:50:31;;;;;;;;;;;-3.50;89.80;;;;;;5065222;28;19990;-81
2022/01/22 02:53:07;;;;;;;;;;;-3.50;88.40;;;;;;5070952;28;19925;-75
2022/01/22 02:55:34;;;;;;;;;;;-3.50;87.60;;;;;;5048407;28;19932;-76
2022/01/22 02:58:01;;;;;;;;;;;-3.50;86.70;;;;;;5038547;28;19951;-76
2022/01/22 03:00:28;;;;;;;;;;;-3.50;88.10;;;;;;5065082;28;19977;-75
2022/01/22 03:02:54;;;;;;;;;;;-3.60;86.60;;;;;;5061261;28;19978;-77
2022/01/22 03:05:21;;;;;;;;;;;-3.60;86.30;;;;;;5043864;28;19925;-80
2022/01/22 03:07:52;;;;;;;;;;;-3.60;85.50;;;;;;5045716;28;19979;-77
2022/01/22 03:10:22;;;;;;;;;;;-3.60;85.00;;;;;;5050960;28;19928;-81
2022/01/22 03:13:07;;;;;;;;;;;-3.70;85.00;;;;;;5038980;28;19933;-77
2022/01/22 03:18:42;;;;;;;;;;;-3.80;84.20;;;;;;5051328;28;19924;-77
2022/01/22 03:21:38;;;;;;;;;;;-3.80;83.80;;;;;;5051212;28;20293;-77
2022/01/22 03:29:40;;;;;;;;;;;-3.90;83.90;;;;;;5066767;28;19952;-76
2022/01/22 03:32:11;;;;;;;;;;;-3.90;83.90;;;;;;5028855;28;19935;-81
2022/01/22 03:34:53;;;;;;;;;;;-3.90;83.60;;;;;;5051737;28;19929;-81
2022/01/22 03:37:20;;;;;;;;;;;-3.90;84.00;;;;;;5039634;28;19952;-76
2022/01/22 03:39:47;;;;;;;;;;;-3.90;84.90;;;;;;5056468;28;19925;-75
2022/01/22 03:42:13;;;;;;;;;;;-4.00;84.00;;;;;;5067106;28;19997;-76
2022/01/22 03:44:40;;;;;;;;;;;-4.00;85.90;;;;;;5027687;28;19925;-76
2022/01/22 03:47:07;;;;;;;;;;;-4.00;85.40;;;;;;5045806;28;19974;-76
2022/01/22 03:49:34;;;;;;;;;;;-4.00;85.10;;;;;;5062761;28;19933;-77
2022/01/22 03:52:01;;;;;;;;;;;-4.10;84.40;;;;;;5071648;28;19947;-81
2022/01/22 03:54:28;;;;;;;;;;;-4.10;84.60;;;;;;5063911;28;20296;-77
2022/01/22 03:56:55;;;;;;;;;;;-4.20;84.20;;;;;;5070094;28;19951;-76
2022/01/22 03:59:22;;;;;;;;;;;-4.20;85.10;;;;;;5022013;28;20327;-77
2022/01/22 04:04:29;;;;;;;;;;;-4.20;85.30;;;;;;5043243;28;19924;-75
2022/01/22 04:09:26;;;;;;;;;;;-4.10;87.40;;;;;;5041596;28;19928;-81
2022/01/22 04:11:54;;;;;;;;;;;-4.30;87.10;;;;;;5057293;28;19925;-77
2022/01/22 04:14:26;;;;;;;;;;;-4.40;87.30;;;;;;5056007;28;19971;-76
2022/01/22 04:25:18;;;;;;;;;;;-4.50;86.30;;;;;;5061152;28;19973;-76
2022/01/22 04:27:46;;;;;;;;;;;-4.50;86.60;;;;;;5057287;28;20442;-81
2022/01/22 04:30:13;;;;;;;;;;;-4.50;85.90;;;;;;5073484;28;19973;-81
2022/01/22 04:32:40;;;;;;;;;;;-4.40;85.20;;;;;;5053707;28;19943;-78
2022/01/22 04:35:07;;;;;;;;;;;-4.40;85.10;;;;;;5053767;28;19924;-75
2022/01/22 04:37:34;;;;;;;;;;;-4.40;84.70;;;;;;5052958;28;20464;-75
2022/01/22 04:40:00;;;;;;;;;;;-4.40;85.20;;;;;;5047356;28;19925;-80
2022/01/22 04:42:30;;;;;;;;;;;-4.40;85.40;;;;;;5056437;28;19974;-77
2022/01/22 04:45:03;;;;;;;;;;;-4.40;85.50;;;;;;5042057;28;20446;-79
2022/01/22 04:55:30;;;;;;;;;;;-4.40;85.70;;;;;;5039459;28;20313;-77
2022/01/22 04:57:57;;;;;;;;;;;-4.50;86.70;;;;;;5055091;28;19925;-76
2022/01/22 05:00:24;;;;;;;;;;;-4.40;87.90;;;;;;5051894;28;19928;-75
2022/01/22 05:02:51;;;;;;;;;;;-4.40;87.50;;;;;;5042586;28;20377;-76
2022/01/22 05:05:18;;;;;;;;;;;-4.50;88.30;;;;;;5043337;28;19925;-76
2022/01/22 05:07:45;;;;;;;;;;;-4.50;87.60;;;;;;5068110;28;19929;-75
2022/01/22 05:10:11;;;;;;;;;;;-4.50;87.30;;;;;;5041344;28;19951;-78
2022/01/22 05:12:38;;;;;;;;;;;-4.50;87.10;;;;;;5072593;28;19946;-79
2022/01/22 05:15:05;;;;;;;;;;;-4.50;87.00;;;;;;5058514;28;20350;-81
2022/01/22 05:17:36;;;;;;;;;;;-4.50;87.50;;;;;;5053341;28;19982;-80
2022/01/22 05:20:09;;;;;;;;;;;-4.50;87.80;;;;;;5071577;28;19974;-76
2022/01/22 05:25:28;;;;;;;;;;;-4.50;88.10;;;;;;5073701;28;20415;-76
2022/01/22 05:28:10;;;;;;;;;;;-4.50;88.60;;;;;;5044072;28;19928;-76
2022/01/22 05:33:33;;;;;;;;;;;-4.60;90.00;;;;;;5068906;28;19924;-81
2022/01/22 05:38:46;;;;;;;;;;;-4.60;90.00;;;;;;5050528;28;19925;-81
2022/01/22 05:41:14;;;;;;;;;;;-4.50;90.20;;;;;;5052704;28;19933;-76
2022/01/22 05:43:41;;;;;;;;;;;-4.50;90.10;;;;;;5066675;28;20400;-75
2022/01/22 05:46:08;;;;;;;;;;;-4.50;90.60;;;;;;5041209;28;20111;-79
2022/01/22 05:48:35;;;;;;;;;;;-4.50;91.20;;;;;;5069562;28;19932;-76
2022/01/22 05:51:04;;;;;;;;;;;-4.50;91.60;;;;;;5055950;28;19940;-77
2022/01/22 05:53:43;;;;;;;;;;;-4.50;91.60;;;;;;5060276;28;19947;-81
2022/01/22 06:01:43;;;;;;;;;;;-4.50;92.10;;;;;;5071177;28;19928;-76
2022/01/22 06:04:11;;;;;;;;;;;-4.40;92.10;;;;;;5061442;28;19964;-77
2022/01/22 06:06:37;;;;;;;;;;;-4.40;92.20;;;;;;5052857;28;19974;-77
2022/01/22 06:09:08;;;;;;;;;;;-4.40;92.10;;;;;;5054615;28;19982;-75
2022/01/22 06:11:51;;;;;;;;;;;-4.50;91.90;;;;;;5062977;28;19925;-78
2022/01/22 06:14:18;;;;;;;;;;;-4.40;91.90;;;;;;5037428;28;20535;-79
2022/01/22 06:16:46;;;;;;;;;;;-4.40;91.90;;;;;;5033456;28;19955;-81
2022/01/22 06:19:13;;;;;;;;;;;-4.50;91.90;;;;;;5053564;28;20002;-77
2022/01/22 06:21:40;;;;;;;;;;;-4.50;92.20;;;;;;5072288;28;20392;-76
2022/01/22 06:24:07;;;;;;;;;;;-4.50;92.40;;;;;;5070565;28;20390;-76
2022/01/22 06:26:35;;;;;;;;;;;-4.40;92.40;;;;;;5064381;28;20189;-76
2022/01/22 06:29:05;;;;;;;;;;;-4.30;92.50;;;;;;5037820;28;19925;-79
2022/01/22 06:31:31;;;;;;;;;;;-4.30;92.30;;;;;;5066035;28;19928;-76
2022/01/22 06:33:58;;;;;;;;;;;-4.20;92.20;;;;;;5071817;28;19924;-76
2022/01/22 06:36:26;;;;;;;;;;;-4.20;92.10;;;;;;5071317;28;19924;-79
2022/01/22 06:38:58;;;;;;;;;;;-4.10;92.10;;;;;;5068740;28;20450;-76
2022/01/22 06:44:12;;;;;;;;;;;-4.00;91.80;;;;;;5052374;28;19932;-78
2022/01/22 06:46:39;;;;;;;;;;;-4.10;92.10;;;;;;5054950;28;20016;-76
2022/01/22 06:49:06;;;;;;;;;;;-4.10;92.10;;;;;;5036365;28;19925;-78
2022/01/22 06:51:34;;;;;;;;;;;-4.20;92.40;;;;;;5064916;28;19928;-78
2022/01/22 06:54:02;;;;;;;;;;;-4.20;92.60;;;;;;5059112;28;19925;-76
2022/01/22 06:56:30;;;;;;;;;;;-4.10;92.70;;;;;;5054625;28;19928;-76
2022/01/22 06:58:57;;;;;;;;;;;-4.10;92.80;;;;;;5052936;28;19979;-76
2022/01/22 07:01:24;;;;;;;;;;;-4.20;93.10;;;;;;5044076;28;19955;-75
2022/01/22 07:03:51;;;;;;;;;;;-4.30;92.90;;;;;;5042645;28;19932;-76
2022/01/22 07:06:18;;;;;;;;;;;-4.30;93.10;;;;;;5059308;28;19940;-76
2022/01/22 07:08:45;;;;;;;;;;;-4.20;93.10;;;;;;5025458;28;19933;-76
2022/01/22 07:11:12;;;;;;;;;;;-4.20;93.10;;;;;;5034644;28;19929;-81
2022/01/22 07:13:39;;;;;;;;;;;-4.20;93.10;;;;;;5030020;28;19929;-75
2022/01/22 07:16:06;;;;;;;;;;;-4.20;93.20;;;;;;5040904;28;19925;-76
2022/01/22 07:18:34;;;;;;;;;;;-4.30;93.10;;;;;;5042895;28;19929;-81
2022/01/22 07:21:09;;;;;;;;;;;-4.20;93.20;;;;;;5051505;28;19925;-78
2022/01/22 07:26:04;;;;;;;;;;;-4.10;93.40;;;;;;5053167;28;19924;-77
2022/01/22 07:28:31;;;;;;;;;;;-4.00;93.30;;;;;;5041728;28;19925;-79
2022/01/22 07:31:00;;;;;;;;;;;-4.00;93.50;;;;;;5040403;28;20400;-76
2022/01/22 07:33:27;;;;;;;;;;;-4.00;92.90;;;;;;5034609;28;20011;-81
2022/01/22 07:35:54;;;;;;;;;;;-4.10;92.80;;;;;;5041051;28;19936;-76
2022/01/22 07:38:21;;;;;;;;;;;-4.20;92.80;;;;;;5060166;28;20269;-77
2022/01/22 07:40:48;;;;;;;;;;;-4.20;93.00;;;;;;5053369;28;20395;-76
2022/01/22 07:43:16;;;;;;;;;;;-4.30;93.20;;;;;;5074982;28;20407;-76
2022/01/22 07:45:43;;;;;;;;;;;-4.30;93.30;;;;;;5075900;28;19925;-75
2022/01/22 07:48:10;;;;;;;;;;;-4.20;93.40;;;;;;5050232;28;19929;-76
2022/01/22 07:50:37;;;;;;;;;;;-4.10;93.40;;;;;;5043035;28;19951;-81
2022/01/22 07:53:03;;;;;;;;;;;-4.10;93.30;;;;;;5032573;28;19924;-78
2022/01/22 07:55:30;;;;;;;;;;;-4.00;93.20;;;;;;5041347;28;20385;-82
2022/01/22 07:57:57;;;;;;;;;;;-4.00;93.10;;;;;;5052377;28;19974;-81
2022/01/22 08:00:24;;;;;;;;;;;-3.90;93.00;;;;;;5045639;28;19929;-78
2022/01/22 08:02:51;;;;;;;;;;;-3.90;93.00;;;;;;5045612;28;19925;-78
2022/01/22 08:05:18;;;;;;;;;;;-3.90;92.90;;;;;;5054335;28;20385;-77
2022/01/22 08:07:44;;;;;;;;;;;-3.90;92.80;;;;;;5043820;28;20405;-78
2022/01/22 08:10:12;;;;;;;;;;;-3.90;92.80;;;;;;5044283;28;19975;-78
2022/01/22 08:12:40;;;;;;;;;;;-4.00;92.90;;;;;;5034938;28;19925;-79
2022/01/22 08:15:08;;;;;;;;;;;-4.10;93.10;;;;;;5035012;28;20382;-76
2022/01/22 08:17:35;;;;;;;;;;;-4.00;93.20;;;;;;5037541;28;20023;-77
2022/01/22 08:20:02;;;;;;;;;;;-3.90;93.30;;;;;;5060057;28;19925;-81
2022/01/22 08:22:29;;;;;;;;;;;-3.80;93.30;;;;;;5066466;28;19928;-81
2022/01/22 08:24:59;;;;;;;;;;;-3.70;93.20;;;;;;5040345;28;19925;-79
2022/01/22 08:29:53;;;;;;;;;;;-3.50;93.00;;;;;;5074921;28;19928;-75
2022/01/22 08:37:56;;;;;;;;;;;-3.60;92.70;;;;;;5057047;28;19924;-75
2022/01/22 08:40:22;;;;;;;;;;;-3.50;92.70;;;;;;5056485;28;19924;-82
2022/01/22 08:42:50;;;;;;;;;;;-3.60;92.70;;;;;;5053803;28;20381;-77
2022/01/22 08:45:17;;;;;;;;;;;-3.60;92.90;;;;;;5025053;28;20352;-77
2022/01/22 08:47:44;;;;;;;;;;;-3.50;92.90;;;;;;5037258;28;19995;-77
2022/01/22 08:50:10;;;;;;;;;;;-3.50;92.80;;;;;;5055191;28;20381;-77
2022/01/22 08:52:37;;;;;;;;;;;-3.60;92.80;;;;;;5061216;28;20442;-79
2022/01/22 08:55:05;;;;;;;;;;;-3.50;93.00;;;;;;5062693;28;19928;-77
2022/01/22 08:57:32;;;;;;;;;;;-3.50;93.00;;;;;;5040000;28;19974;-80
2022/01/22 08:59:59;;;;;;;;;;;-3.50;92.90;;;;;;5028025;28;19924;-76
2022/01/22 09:02:27;;;;;;;;;;;-3.50;92.90;;;;;;5057839;28;19951;-79
2022/01/22 09:04:54;;;;;;;;;;;-3.40;93.00;;;;;;5061158;28;19943;-77
2022/01/22 09:07:21;;;;;;;;;;;-3.30;92.90;;;;;;5061853;28;19924;-80
2022/01/22 09:09:48;;;;;;;;;;;-3.20;92.90;;;;;;5058804;28;19925;-77
2022/01/22 09:12:16;;;;;;;;;;;-3.10;92.70;;;;;;5054303;28;20379;-77
2022/01/22 09:14:43;;;;;;;;;;;-3.00;92.50;;;;;;5037688;28;19932;-77
2022/01/22 09:17:11;;;;;;;;;;;-3.00;92.30;;;;;;5045635;28;20348;-78
2022/01/22 09:19:38;;;;;;;;;;;-3.00;92.20;;;;;;5060401;28;20338;-78
2022/01/22 09:22:07;;;;;;;;;;;-2.90;92.20;;;;;;5049937;28;19982;-76
2022/01/22 09:24:33;;;;;;;;;;;-2.90;92.20;;;;;;5058709;28;20376;-76
2022/01/22 09:27:04;;;;;;;;;;;-2.80;92.10;;;;;;5056281;28;19924;-77
2022/01/22 09:29:31;;;;;;;;;;;-2.70;92.10;;;;;;5057421;28;19925;-77
2022/01/22 09:31:58;;;;;;;;;;;-2.70;91.90;;;;;;5060864;28;19928;-77
2022/01/22 09:34:25;;;;;;;;;;;-2.70;91.80;;;;;;5036463;28;20019;-76
2022/01/22 09:36:52;;;;;;;;;;;-2.50;91.90;;;;;;5067258;28;19932;-75
2022/01/22 09:39:19;;;;;;;;;;;-2.40;91.90;;;;;;5025971;28;19925;-76
2022/01/22 09:41:46;;;;;;;;;;;-2.40;91.60;;;;;;5031181;28;20459;-77
2022/01/22 09:44:29;;;;;;;;;;;-2.30;91.50;;;;;;5042076;28;19936;-78
2022/01/22 09:46:57;;;;;;;;;;;-2.20;91.30;;;;;;5045004;28;19995;-77
2022/01/22 09:49:24;;;;;;;;;;;-2.10;91.20;;;;;;5039290;28;19925;-77
2022/01/22 09:51:50;;;;;;;;;;;-2.00;91.20;;;;;;5042876;28;19925;-77
2022/01/22 09:54:17;;;;;;;;;;;-1.80;91.20;;;;;;5046087;28;19924;-77
2022/01/22 09:56:45;;;;;;;;;;;-1.70;91.00;;;;;;5037722;28;19925;-77
2022/01/22 09:59:13;;;;;;;;;;;-1.50;91.10;;;;;;5057437;28;19925;-77
2022/01/22 10:01:40;;;;;;;;;;;-1.50;90.80;;;;;;5053182;28;19954;-76
2022/01/22 10:04:08;;;;;;;;;;;-1.50;90.40;;;;;;5055598;28;19956;-77
2022/01/22 10:06:45;;;;;;;;;;;-1.50;90.60;;;;;;5042688;28;19933;-78
2022/01/22 10:09:15;;;;;;;;;;;-1.50;90.80;;;;;;5043842;28;19986;-77
2022/01/22 10:11:41;;;;;;;;;;;-1.60;90.70;;;;;;5044262;28;20336;-77
2022/01/22 10:14:09;;;;;;;;;;;-1.40;90.80;;;;;;5042126;28;19929;-78
2022/01/22 10:16:36;;;;;;;;;;;-1.60;90.50;;;;;;5047375;28;19936;-77
2022/01/22 10:19:11;;;;;;;;;;;-1.60;90.80;;;;;;5041676;28;20015;-78
2022/01/22 10:21:39;;;;;;;;;;;-1.60;91.00;;;;;;5042438;28;19974;-78
2022/01/22 10:24:28;;;;;;;;;;;-1.40;91.30;;;;;;5047150;28;19987;-78
2022/01/22 10:27:30;;;;;;;;;;;-1.10;91.50;;;;;;5045621;28;19929;-77
2022/01/22 10:30:06;;;;;;;;;;;-0.90;91.40;;;;;;5063636;28;19924;-77
2022/01/22 10:33:01;;;;;;;;;;;-0.50;90.90;;;;;;5066806;28;19970;-79
2022/01/22 10:35:28;;;;;;;;;;;-0.20;90.60;;;;;;5071461;28;20005;-77
2022/01/22 10:38:18;;;;;;;;;;;0.10;89.70;;;;;;5071300;28;19985;-76
2022/01/22 10:40:45;;;;;;;;;;;0.40;88.50;;;;;;5052336;28;19979;-76
2022/01/22 10:43:16;;;;;;;;;;;0.60;86.80;;;;;;5030466;28;19924;-78
2022/01/22 10:45:56;;;;;;;;;;;0.70;86.90;;;;;;5063034;28;19975;-79
2022/01/22 10:48:23;;;;;;;;;;;1.00;85.80;;;;;;5071539;28;20376;-78
2022/01/22 10:51:00;;;;;;;;;;;1.00;84.40;;;;;;5058446;28;19929;-78
2022/01/22 10:53:37;;;;;;;;;;;1.30;85.10;;;;;;5070240;28;19924;-78
2022/01/22 10:56:05;;;;;;;;;;;1.50;84.00;;;;;;5044137;28;20447;-77
2022/01/22 10:58:33;;;;;;;;;;;1.60;81.40;;;;;;5030414;28;19967;-76
2022/01/22 11:01:10;;;;;;;;;;;1.90;82.40;;;;;;5030739;28;19929;-78
2022/01/22 11:03:37;;;;;;;;;;;2.10;82.00;;;;;;5028393;28;20036;-78
2022/01/22 11:06:08;;;;;;;;;;;2.30;78.90;;;;;;5038643;28;19928;-77
2022/01/22 11:08:35;;;;;;;;;;;2.50;78.30;;;;;;5051461;28;19952;-78
2022/01/22 11:11:03;;;;;;;;;;;2.70;78.00;;;;;;5065537;28;19931;-76
2022/01/22 11:13:30;;;;;;;;;;;2.80;75.40;;;;;;5052869;28;19932;-78
2022/01/22 11:15:57;;;;;;;;;;;3.00;73.60;;;;;;5030622;28;19924;-77
2022/01/22 11:18:25;;;;;;;;;;;3.10;71.60;;;;;;5039856;28;19929;-78
2022/01/22 11:20:52;;;;;;;;;;;3.20;69.00;;;;;;5050300;28;19925;-79
2022/01/22 11:23:19;;;;;;;;;;;3.30;69.80;;;;;;5050039;28;19931;-76
2022/01/22 11:25:46;;;;;;;;;;;3.60;73.40;;;;;;5046326;28;20322;-77
2022/01/22 11:28:13;;;;;;;;;;;3.80;71.50;;;;;;5041870;28;20443;-77
2022/01/22 11:30:44;;;;;;;;;;;4.00;70.20;;;;;;5047528;28;20712;-76
2022/01/22 11:33:12;;;;;;;;;;;4.30;70.10;;;;;;5052047;28;20401;-78
2022/01/22 11:35:53;;;;;;;;;;;4.50;68.70;;;;;;5037722;28;19971;-78
2022/01/22 11:38:41;;;;;;;;;;;4.70;68.30;;;;;;5040408;28;19932;-77
2022/01/22 11:41:19;;;;;;;;;;;5.00;66.40;;;;;;5035977;28;20385;-78
2022/01/22 11:46:58;;;;;;;;;;;5.40;64.70;;;;;;5055660;28;19924;-77
2022/01/22 11:49:29;;;;;;;;;;;5.30;63.10;;;;;;5053100;28;20416;-76
2022/01/22 11:52:08;;;;;;;;;;;5.50;62.00;;;;;;5059496;28;19924;-77
2022/01/22 11:54:53;;;;;;;;;;;5.80;61.00;;;;;;5053237;28;19925;-76
2022/01/22 11:57:21;;;;;;;;;;;6.00;60.30;;;;;;5052824;28;20355;-79
2022/01/22 11:59:49;;;;;;;;;;;6.30;58.00;;;;;;5019311;28;19987;-78
2022/01/22 12:02:16;;;;;;;;;;;6.50;59.10;;;;;;5036655;28;19948;-78
2022/01/22 12:04:44;;;;;;;;;;;6.80;58.70;;;;;;5027001;28;19925;-79
2022/01/22 12:07:13;;;;;;;;;;;7.10;57.20;;;;;;5050820;28;19924;-77
2022/01/22 12:10:18;;;;;;;;;;;7.20;55.30;;;;;;5022462;28;20287;-77
2022/01/22 12:15:20;;;;;;;;;;;7.60;52.60;;;;;;5036693;28;19951;-80
2022/01/22 12:17:47;;;;;;;;;;;7.80;51.70;;;;;;5055749;28;19979;-77
2022/01/22 12:21:30;;;;;;;;;;;8.00;53.40;;;;;;5045715;28;19936;-78
2022/01/22 12:23:40;;;;;;;;;;;8.10;50.60;;;;;;5061739;28;19932;-78
2022/01/22 12:26:06;;;;;;;;;;;8.40;50.90;;;;;;5044334;28;19925;-77
2022/01/22 12:28:40;;;;;;;;;;;8.70;50.70;;;;;;5062895;28;19932;-78
2022/01/22 12:31:08;;;;;;;;;;;8.90;48.20;;;;;;5034991;28;20431;-77
2022/01/22 12:33:38;;;;;;;;;;;9.10;49.30;;;;;;5044767;28;20393;-76
2022/01/22 12:36:11;;;;;;;;;;;9.30;48.60;;;;;;5042970;28;19933;-78
2022/01/22 12:38:49;;;;;;;;;;;9.50;46.30;;;;;;5039570;28;20418;-77
2022/01/22 12:44:07;;;;;;;;;;;9.80;46.80;;;;;;5064669;28;20389;-77
2022/01/22 12:46:49;;;;;;;;;;;10.00;45.30;;;;;;5043125;28;19963;-78
2022/01/22 12:49:16;;;;;;;;;;;10.20;44.90;;;;;;5055499;28;20419;-80
2022/01/22 12:51:43;;;;;;;;;;;10.40;44.90;;;;;;5069096;28;20438;-76
2022/01/22 12:54:10;;;;;;;;;;;10.50;43.70;;;;;;5055735;28;19936;-76
2022/01/22 12:57:07;;;;;;;;;;;10.70;42.10;;;;;;5052011;28;19972;-79
2022/01/22 13:00:12;;;;;;;;;;;10.60;41.50;;;;;;5062918;28;19928;-77
2022/01/22 13:02:59;;;;;;;;;;;10.80;41.00;;;;;;5034295;28;19939;-79
2022/01/22 13:05:28;;;;;;;;;;;11.00;40.40;;;;;;5053676;28;19928;-80
2022/01/22 13:07:57;;;;;;;;;;;11.10;39.00;;;;;;5055979;28;19928;-77
2022/01/22 13:10:32;;;;;;;;;;;11.30;39.40;;;;;;5029738;28;19929;-77
2022/01/22 13:13:00;;;;;;;;;;;11.40;38.00;;;;;;5034547;28;19975;-80
2022/01/22 13:15:27;;;;;;;;;;;11.50;38.70;;;;;;5028485;28;19932;-79
2022/01/22 13:18:02;;;;;;;;;;;11.60;37.90;;;;;;5036710;28;19925;-77
2022/01/22 13:20:32;;;;;;;;;;;11.80;36.00;;;;;;5031988;28;20332;-80
2022/01/22 13:23:02;;;;;;;;;;;11.80;36.00;;;;;;5043664;28;19931;-79
2022/01/22 13:25:29;;;;;;;;;;;11.90;34.70;;;;;;5062631;28;20403;-78
2022/01/22 13:28:14;;;;;;;;;;;12.00;36.10;;;;;;5045268;28;19925;-78
2022/01/22 13:30:48;;;;;;;;;;;12.10;36.40;;;;;;5013967;28;20504;-79
2022/01/22 13:33:20;;;;;;;;;;;12.30;35.80;;;;;;5014968;28;20404;-79
2022/01/22 13:36:33;;;;;;;;;;;12.50;35.60;;;;;;5018567;28;19925;-78
2022/01/22 13:47:47;;;;;;;;;;;12.40;35.10;;;;;;5010866;28;19936;-77
2022/01/22 13:50:14;;;;;;;;;;;12.60;35.80;;;;;;5019252;28;20512;-79
2022/01/22 13:52:43;;;;;;;;;;;12.60;34.20;;;;;;5011159;28;20012;-79
2022/01/22 13:55:12;;;;;;;;;;;12.60;35.30;;;;;;5034993;28;20338;-79
2022/01/22 13:57:38;;;;;;;;;;;12.50;34.50;;;;;;5056051;28;20382;-77
2022/01/22 14:00:16;;;;;;;;;;;12.60;36.30;;;;;;5014227;28;20333;-78
2022/01/22 14:05:31;;;;;;;;;;;12.50;35.30;;;;;;5027419;28;20332;-79
2022/01/22 14:07:59;;;;;;;;;;;12.40;37.50;;;;;;5039690;28;19937;-79
2022/01/22 14:10:26;;;;;;;;;;;12.40;38.70;;;;;;5018530;28;19936;-79
2022/01/22 14:13:04;;;;;;;;;;;12.30;39.00;;;;;;5026937;28;19933;-78
2022/01/22 14:15:45;;;;;;;;;;;11.90;37.20;;;;;;5035527;28;19929;-78
2022/01/22 14:18:27;;;;;;;;;;;11.80;37.60;;;;;;5048431;28;19928;-77
2022/01/22 14:20:55;;;;;;;;;;;11.70;38.00;;;;;;5044677;28;19924;-79
2022/01/22 14:23:22;;;;;;;;;;;11.80;37.70;;;;;;5052550;28;20373;-77
2022/01/22 14:25:56;;;;;;;;;;;11.80;38.20;;;;;;5053374;28;19932;-77
2022/01/22 14:28:36;;;;;;;;;;;11.90;38.70;;;;;;5045940;28;19924;-79
2022/01/22 14:31:22;;;;;;;;;;;11.80;40.40;;;;;;5060150;28;19925;-79
2022/01/22 14:33:49;;;;;;;;;;;11.80;40.70;;;;;;5050987;28;19980;-78
2022/01/22 14:36:20;;;;;;;27.10;18.00;;;11.80;40.20;;;;;;5036230;28;19924;-77
2022/01/22 14:38:53;;;;;;;28.67;19.00;;;11.80;40.90;;;;;;5033271;28;20059;-77
2022/01/22 14:44:29;;;;;;;29.98;19.52;;;11.60;40.50;;;;;;5052217;28;20052;-79
2022/01/22 14:47:04;;;;;;;35.25;25.23;;;11.60;41.40;;;;;;5031274;28;20509;-77
2022/01/22 14:49:38;;;;;;;35.35;24.20;;;11.50;42.90;;;;;;5023545;28;20103;-77
2022/01/22 14:52:08;;;;;;;33.38;24.23;;;11.50;43.50;;;;;;5025752;28;20061;-77
2022/01/22 14:54:45;;;;;;;41.20;27.88;;;11.50;43.90;;;;;;5039413;28;20049;-81
2022/01/22 14:57:14;;;;;;;42.72;28.25;;;11.50;46.00;;;;;;5036199;28;20523;-79
2022/01/22 14:59:42;;;;;;;37.40;27.20;;;11.50;45.70;;;;;;5035453;28;20064;-78
2022/01/22 15:02:10;;;;;;;37.28;26.20;;;11.40;45.60;;;;;;5023371;28;20539;-79
2022/01/22 15:04:39;;;;;;;34.92;26.35;;;11.40;46.00;;;;;;5055906;28;20064;-78
2022/01/22 15:07:09;;;;;;;41.25;29.05;;;11.40;46.40;;;;;;5050116;28;20080;-79
2022/01/22 15:09:37;;;;;;;;;;;11.40;46.70;;;;;;5034713;28;20087;-80
2022/01/22 15:12:05;;;;;;;;;;;11.50;46.10;;;;;;5044065;28;20373;-80
2022/01/22 15:14:32;;;;;;;;;;;11.50;45.80;;;;;;5031204;28;20381;-80
2022/01/22 15:19:40;;;;;;;;;;;11.40;46.10;;;;;;5051513;28;20363;-78
2022/01/22 15:22:10;;;;;;;;;;;11.40;46.10;;;;;;5051682;28;20392;-79
2022/01/22 15:24:38;;;;;;;;;;;11.40;45.80;;;;;;5053249;28;19924;-79
2022/01/22 15:27:06;;;;;;;;;;;11.40;45.80;;;;;;5030438;28;20388;-77
2022/01/22 15:29:42;;;;;;;;;;;11.30;46.30;;;;;;5028839;28;19928;-79
2022/01/22 15:32:19;;;;;;;;;;;11.20;46.70;;;;;;5051444;28;19920;-77
2022/01/22 15:35:02;;;;;;;;;;;11.20;47.20;;;;;;5062743;28;19920;-77
2022/01/22 15:37:29;;;;;;;;;;;11.20;47.20;;;;;;5069842;28;19920;-77
2022/01/22 15:39:57;;;;;;;;;;;11.20;47.70;;;;;;5025801;28;19974;-76
2022/01/22 15:42:24;;;;;;;;;;;11.20;47.70;;;;;;5036164;28;19920;-77
2022/01/22 15:44:51;;;;;;;27.30;19.20;;;11.20;47.20;;;;;;5051452;28;20392;-76
2022/01/22 15:47:21;;;;;;;20.55;13.98;;;11.10;46.50;;;;;;5063536;28;20052;-76
2022/01/22 15:49:55;;;;;;;17.25;11.60;;;11.00;44.70;;;;;;5049665;28;20049;-76
2022/01/22 15:52:23;;;;;;;21.65;12.07;;;10.90;43.50;;;;;;5060150;28;20048;-78
2022/01/22 15:54:50;;;;;;;;;;;10.70;42.40;;;;;;5042166;28;20057;-79
2022/01/22 15:57:17;;;;;;;;;;;10.50;41.40;;;;;;5036949;28;19932;-80
2022/01/22 15:59:47;;;;;;;;;;;10.30;42.30;;;;;;5061718;28;20411;-77
2022/01/22 16:02:16;;;;;;;;;;;10.00;42.60;;;;;;5052030;28;19943;-77
2022/01/22 16:04:50;;;;;;;;;;;9.80;41.20;;;;;;5057498;28;19920;-77
2022/01/22 16:07:26;;;;;;;;;;;9.60;40.90;;;;;;5044014;28;19925;-77
2022/01/22 16:10:13;;;;;;;;;;;9.40;40.70;;;;;;5028322;28;19952;-79
2022/01/22 16:12:40;;;;;;;;;;;9.10;40.80;;;;;;5034482;28;19948;-79
2022/01/22 16:15:07;;;;;;;;;;;8.90;41.30;;;;;;5024230;28;20304;-76
2022/01/22 16:17:34;;;;;;;;;;;8.60;41.80;;;;;;5056985;28;19920;-77
2022/01/22 16:20:01;;;;;;;;;;;8.40;42.80;;;;;;5059412;28;19942;-76
2022/01/22 16:22:28;;;;;;;;;;;8.20;43.80;;;;;;5039727;28;19928;-79
2022/01/22 16:24:56;;;;;;;;;;;7.80;44.70;;;;;;5042264;28;19932;-79
2022/01/22 16:27:25;;;;;;;;;;;7.70;45.30;;;;;;5048119;28;19921;-76